首页
METAR-TAF:

METAR-TAF

机场 :

贝伦, 帕拉, 巴西

纬度: 01-23S, 经度: 048-29W, 海拔: 16米

当前天气观测

该预报发布于24分钟前的18:00 UTC
风速11节,风向东南
温度 32°C
湿度 59%
气压 1011 hPa
能见度10公里或以上
少量云层高于4000英尺

METAR: SBBE 061800Z 14011KT 9999 FEW040 32/23 Q1011

时间: 15:24 (18:24 UTC)

预报

该预报发布于3小时和24分钟前的15:00 UTC
预报有效从06日的 18点(UTC)到 07日的 18点(UTC)
风速8节,风向东转东南
能见度10公里或以上
散云层高于2500英尺
少量云层高于3000英尺, 塔状积云.
成为
从 06日的 19点(UTC)到 06日的 21点(UTC)
能見度: 4000
散云层高于2500英尺
少量云层高于3000英尺, 积雨云.
雷暴, 雨
成为
从 07日的 00点(UTC)到 07日的 03点(UTC)
能见度10公里或以上
散云层高于1800英尺

TAF: SBBE 061500Z 0618/0718 11008KT 9999 SCT025 FEW030TCU TN24/0709Z TX30/0717Z BECMG 0619/0621 4000 TSRA SCT025 FEW030CB BECMG 0700/0703 9999 NSW SCT018 RMK PED

超过4000个机场的气象观测和天气预报(METAR&TAF报告)。

可查询的气象台以黄色和红色小点在地图上表示。

将鼠标移到小点上方,可查看气象台名称。

然后点击查看天气观测和预报。

如需切换地图:点击带黑十字的绿色按钮放大地图;点击带横线的绿色按钮缩小地图;或者点击绿色箭头查看邻近地区的地图。


METAR-TAF: